sensor_id;sensor_type;location;lat;lon;timestamp;temperature;humidity
6865;DHT22;3471;49.678;8.388;2024-02-21T00:00:45;10.10;99.90
6865;DHT22;3471;49.678;8.388;2024-02-21T00:03:11;10.10;99.90
6865;DHT22;3471;49.678;8.388;2024-02-21T00:05:37;10.10;99.90
6865;DHT22;3471;49.678;8.388;2024-02-21T00:08:02;10.10;99.90
6865;DHT22;3471;49.678;8.388;2024-02-21T00:10:28;10.10;99.90
6865;DHT22;3471;49.678;8.388;2024-02-21T00:12:54;10.10;99.90
6865;DHT22;3471;49.678;8.388;2024-02-21T00:15:20;10.10;99.90
6865;DHT22;3471;49.678;8.388;2024-02-21T00:17:46;10.10;99.90
6865;DHT22;3471;49.678;8.388;2024-02-21T00:20:12;10.20;99.90
6865;DHT22;3471;49.678;8.388;2024-02-21T00:22:37;10.20;99.90
6865;DHT22;3471;49.678;8.388;2024-02-21T00:25:03;10.20;99.90
6865;DHT22;3471;49.678;8.388;2024-02-21T00:27:29;10.10;99.90
6865;DHT22;3471;49.678;8.388;2024-02-21T00:29:54;10.10;99.90
6865;DHT22;3471;49.678;8.388;2024-02-21T00:32:20;10.10;99.90
6865;DHT22;3471;49.678;8.388;2024-02-21T00:34:46;10.10;99.90
6865;DHT22;3471;49.678;8.388;2024-02-21T00:37:11;10.10;99.90
6865;DHT22;3471;49.678;8.388;2024-02-21T00:39:37;10.10;99.90
6865;DHT22;3471;49.678;8.388;2024-02-21T00:42:03;10.10;99.90
6865;DHT22;3471;49.678;8.388;2024-02-21T00:44:28;10.10;99.90
6865;DHT22;3471;49.678;8.388;2024-02-21T00:46:54;10.10;99.90
6865;DHT22;3471;49.678;8.388;2024-02-21T00:49:19;10.10;99.90
6865;DHT22;3471;49.678;8.388;2024-02-21T00:51:45;10.10;99.90
6865;DHT22;3471;49.678;8.388;2024-02-21T00:54:10;10.10;99.90
6865;DHT22;3471;49.678;8.388;2024-02-21T00:56:36;10.10;99.90
6865;DHT22;3471;49.678;8.388;2024-02-21T00:59:02;10.00;99.90
6865;DHT22;3471;49.678;8.388;2024-02-21T01:01:27;10.10;99.90
6865;DHT22;3471;49.678;8.388;2024-02-21T01:03:53;10.10;99.90
6865;DHT22;3471;49.678;8.388;2024-02-21T01:06:19;10.00;99.90
6865;DHT22;3471;49.678;8.388;2024-02-21T01:08:46;10.00;99.90
6865;DHT22;3471;49.678;8.388;2024-02-21T01:11:13;9.90;99.90
6865;DHT22;3471;49.678;8.388;2024-02-21T01:13:39;9.90;99.90
6865;DHT22;3471;49.678;8.388;2024-02-21T01:16:04;9.80;99.90
6865;DHT22;3471;49.678;8.388;2024-02-21T01:18:32;9.80;99.90
6865;DHT22;3471;49.678;8.388;2024-02-21T01:20:57;9.80;99.90
6865;DHT22;3471;49.678;8.388;2024-02-21T01:23:23;9.80;99.90
6865;DHT22;3471;49.678;8.388;2024-02-21T01:25:49;9.80;99.90
6865;DHT22;3471;49.678;8.388;2024-02-21T01:28:14;9.80;99.90
6865;DHT22;3471;49.678;8.388;2024-02-21T01:30:40;9.70;99.90
6865;DHT22;3471;49.678;8.388;2024-02-21T01:33:06;9.70;99.90
6865;DHT22;3471;49.678;8.388;2024-02-21T01:35:31;9.70;99.90
6865;DHT22;3471;49.678;8.388;2024-02-21T01:37:57;9.70;99.90
6865;DHT22;3471;49.678;8.388;2024-02-21T01:40:22;9.70;99.90
6865;DHT22;3471;49.678;8.388;2024-02-21T01:42:48;9.80;99.90
6865;DHT22;3471;49.678;8.388;2024-02-21T01:45:14;9.80;99.90
6865;DHT22;3471;49.678;8.388;2024-02-21T01:47:39;9.80;99.90
6865;DHT22;3471;49.678;8.388;2024-02-21T01:50:06;9.80;99.90
6865;DHT22;3471;49.678;8.388;2024-02-21T01:52:32;9.80;99.90
6865;DHT22;3471;49.678;8.388;2024-02-21T01:55:00;9.80;99.90
6865;DHT22;3471;49.678;8.388;2024-02-21T01:57:26;9.80;99.90
6865;DHT22;3471;49.678;8.388;2024-02-21T01:59:52;9.70;99.90
6865;DHT22;3471;49.678;8.388;2024-02-21T02:02:18;9.70;99.90
6865;DHT22;3471;49.678;8.388;2024-02-21T02:04:44;9.70;99.90
6865;DHT22;3471;49.678;8.388;2024-02-21T02:07:10;9.60;99.90
6865;DHT22;3471;49.678;8.388;2024-02-21T02:09:36;9.70;99.90
6865;DHT22;3471;49.678;8.388;2024-02-21T02:12:02;9.60;99.90
6865;DHT22;3471;49.678;8.388;2024-02-21T02:14:27;9.60;99.90
6865;DHT22;3471;49.678;8.388;2024-02-21T02:16:53;9.60;99.90
6865;DHT22;3471;49.678;8.388;2024-02-21T02:19:18;9.60;99.90
6865;DHT22;3471;49.678;8.388;2024-02-21T02:21:54;9.60;99.90
6865;DHT22;3471;49.678;8.388;2024-02-21T02:24:24;9.60;99.90
6865;DHT22;3471;49.678;8.388;2024-02-21T02:26:51;9.70;99.90
6865;DHT22;3471;49.678;8.388;2024-02-21T02:29:16;9.70;99.90
6865;DHT22;3471;49.678;8.388;2024-02-21T02:31:42;9.70;99.90
6865;DHT22;3471;49.678;8.388;2024-02-21T02:34:08;9.70;99.90
6865;DHT22;3471;49.678;8.388;2024-02-21T02:36:36;9.70;99.90
6865;DHT22;3471;49.678;8.388;2024-02-21T02:39:01;9.80;99.90
6865;DHT22;3471;49.678;8.388;2024-02-21T02:41:27;9.80;99.90
6865;DHT22;3471;49.678;8.388;2024-02-21T02:43:53;9.70;99.90
6865;DHT22;3471;49.678;8.388;2024-02-21T02:46:18;9.70;99.90
6865;DHT22;3471;49.678;8.388;2024-02-21T02:48:44;9.60;99.90
6865;DHT22;3471;49.678;8.388;2024-02-21T02:51:10;9.60;99.90
6865;DHT22;3471;49.678;8.388;2024-02-21T02:53:36;9.70;99.90
6865;DHT22;3471;49.678;8.388;2024-02-21T02:56:01;9.70;99.90
6865;DHT22;3471;49.678;8.388;2024-02-21T02:58:28;9.70;99.90
6865;DHT22;3471;49.678;8.388;2024-02-21T03:00:54;9.70;99.90
6865;DHT22;3471;49.678;8.388;2024-02-21T03:03:19;9.70;99.90
6865;DHT22;3471;49.678;8.388;2024-02-21T03:05:45;9.70;99.90
6865;DHT22;3471;49.678;8.388;2024-02-21T03:08:11;9.70;99.90
6865;DHT22;3471;49.678;8.388;2024-02-21T03:10:36;9.70;99.90
6865;DHT22;3471;49.678;8.388;2024-02-21T03:13:02;9.80;99.90
6865;DHT22;3471;49.678;8.388;2024-02-21T03:15:29;9.80;99.90
6865;DHT22;3471;49.678;8.388;2024-02-21T03:17:54;9.80;99.90
6865;DHT22;3471;49.678;8.388;2024-02-21T03:20:20;9.80;99.90
6865;DHT22;3471;49.678;8.388;2024-02-21T03:22:45;9.70;99.90
6865;DHT22;3471;49.678;8.388;2024-02-21T03:25:11;9.80;99.90
6865;DHT22;3471;49.678;8.388;2024-02-21T03:27:38;9.80;99.90
6865;DHT22;3471;49.678;8.388;2024-02-21T03:30:04;9.80;99.90
6865;DHT22;3471;49.678;8.388;2024-02-21T03:32:30;9.70;99.90
6865;DHT22;3471;49.678;8.388;2024-02-21T03:34:55;9.80;99.90
6865;DHT22;3471;49.678;8.388;2024-02-21T03:37:21;9.80;99.90
6865;DHT22;3471;49.678;8.388;2024-02-21T03:39:46;9.80;99.90
6865;DHT22;3471;49.678;8.388;2024-02-21T03:42:12;9.80;99.90
6865;DHT22;3471;49.678;8.388;2024-02-21T03:44:37;9.80;99.90
6865;DHT22;3471;49.678;8.388;2024-02-21T03:47:04;9.80;99.90
6865;DHT22;3471;49.678;8.388;2024-02-21T03:49:29;9.80;99.90
6865;DHT22;3471;49.678;8.388;2024-02-21T03:51:55;9.80;99.90
6865;DHT22;3471;49.678;8.388;2024-02-21T03:54:21;9.80;99.90
6865;DHT22;3471;49.678;8.388;2024-02-21T03:56:47;9.80;99.90
6865;DHT22;3471;49.678;8.388;2024-02-21T03:59:15;9.70;99.90
6865;DHT22;3471;49.678;8.388;2024-02-21T04:01:41;9.80;99.90
6865;DHT22;3471;49.678;8.388;2024-02-21T04:04:07;9.70;99.90
6865;DHT22;3471;49.678;8.388;2024-02-21T04:06:33;9.70;99.90
6865;DHT22;3471;49.678;8.388;2024-02-21T04:08:58;9.70;99.90
6865;DHT22;3471;49.678;8.388;2024-02-21T04:11:24;9.60;99.90
6865;DHT22;3471;49.678;8.388;2024-02-21T04:13:50;9.60;99.90
6865;DHT22;3471;49.678;8.388;2024-02-21T04:16:17;9.60;99.90
6865;DHT22;3471;49.678;8.388;2024-02-21T04:18:43;9.60;99.90
6865;DHT22;3471;49.678;8.388;2024-02-21T04:21:09;9.60;99.90
6865;DHT22;3471;49.678;8.388;2024-02-21T04:23:34;9.60;99.90
6865;DHT22;3471;49.678;8.388;2024-02-21T04:26:00;9.60;99.90
6865;DHT22;3471;49.678;8.388;2024-02-21T04:28:25;9.50;99.90
6865;DHT22;3471;49.678;8.388;2024-02-21T04:30:51;9.50;99.90
6865;DHT22;3471;49.678;8.388;2024-02-21T04:33:17;9.50;99.90
6865;DHT22;3471;49.678;8.388;2024-02-21T04:35:42;9.50;99.90
6865;DHT22;3471;49.678;8.388;2024-02-21T04:38:08;9.50;99.90
6865;DHT22;3471;49.678;8.388;2024-02-21T04:40:33;9.50;99.90
6865;DHT22;3471;49.678;8.388;2024-02-21T04:42:59;9.50;99.90
6865;DHT22;3471;49.678;8.388;2024-02-21T04:45:24;9.50;99.90
6865;DHT22;3471;49.678;8.388;2024-02-21T04:47:50;9.50;99.90
6865;DHT22;3471;49.678;8.388;2024-02-21T04:50:15;9.40;99.90
6865;DHT22;3471;49.678;8.388;2024-02-21T04:52:43;9.40;99.90
6865;DHT22;3471;49.678;8.388;2024-02-21T04:55:08;9.40;99.90
6865;DHT22;3471;49.678;8.388;2024-02-21T04:57:34;9.50;99.90
6865;DHT22;3471;49.678;8.388;2024-02-21T05:00:00;9.50;99.90
6865;DHT22;3471;49.678;8.388;2024-02-21T05:02:25;9.50;99.90
6865;DHT22;3471;49.678;8.388;2024-02-21T05:04:52;9.50;99.90
6865;DHT22;3471;49.678;8.388;2024-02-21T05:07:18;9.50;99.90
6865;DHT22;3471;49.678;8.388;2024-02-21T05:09:45;9.60;99.90
6865;DHT22;3471;49.678;8.388;2024-02-21T05:12:10;9.50;99.90
6865;DHT22;3471;49.678;8.388;2024-02-21T05:14:36;9.50;99.90
6865;DHT22;3471;49.678;8.388;2024-02-21T05:17:03;9.60;99.90
6865;DHT22;3471;49.678;8.388;2024-02-21T05:19:28;9.60;99.90
6865;DHT22;3471;49.678;8.388;2024-02-21T05:21:54;9.50;99.90
6865;DHT22;3471;49.678;8.388;2024-02-21T05:24:20;9.50;99.90
6865;DHT22;3471;49.678;8.388;2024-02-21T05:26:45;9.60;99.90
6865;DHT22;3471;49.678;8.388;2024-02-21T05:29:11;9.60;99.90
6865;DHT22;3471;49.678;8.388;2024-02-21T05:34:21;9.60;99.90
6865;DHT22;3471;49.678;8.388;2024-02-21T05:36:47;9.50;99.90
6865;DHT22;3471;49.678;8.388;2024-02-21T05:39:15;9.50;99.90
6865;DHT22;3471;49.678;8.388;2024-02-21T05:41:41;9.50;99.90
6865;DHT22;3471;49.678;8.388;2024-02-21T05:44:07;9.50;99.90
6865;DHT22;3471;49.678;8.388;2024-02-21T05:46:32;9.40;99.90
6865;DHT22;3471;49.678;8.388;2024-02-21T05:48:58;9.40;99.90
6865;DHT22;3471;49.678;8.388;2024-02-21T05:51:23;9.40;99.90
6865;DHT22;3471;49.678;8.388;2024-02-21T05:53:49;9.40;99.90
6865;DHT22;3471;49.678;8.388;2024-02-21T05:56:15;9.40;99.90
6865;DHT22;3471;49.678;8.388;2024-02-21T05:58:40;9.50;99.90
6865;DHT22;3471;49.678;8.388;2024-02-21T06:01:07;9.50;99.90
6865;DHT22;3471;49.678;8.388;2024-02-21T06:03:35;9.50;99.90
6865;DHT22;3471;49.678;8.388;2024-02-21T06:06:04;9.50;99.90
6865;DHT22;3471;49.678;8.388;2024-02-21T06:08:33;9.50;99.90
6865;DHT22;3471;49.678;8.388;2024-02-21T06:10:58;9.50;99.90
6865;DHT22;3471;49.678;8.388;2024-02-21T06:13:24;9.50;99.90
6865;DHT22;3471;49.678;8.388;2024-02-21T06:15:50;9.50;99.90
6865;DHT22;3471;49.678;8.388;2024-02-21T06:18:17;9.50;99.90
6865;DHT22;3471;49.678;8.388;2024-02-21T06:20:43;9.50;99.90
6865;DHT22;3471;49.678;8.388;2024-02-21T06:23:09;9.50;99.90
6865;DHT22;3471;49.678;8.388;2024-02-21T06:25:35;9.50;99.90
6865;DHT22;3471;49.678;8.388;2024-02-21T06:28:00;9.50;99.90
6865;DHT22;3471;49.678;8.388;2024-02-21T06:30:26;9.50;99.90
6865;DHT22;3471;49.678;8.388;2024-02-21T06:32:52;9.40;99.90
6865;DHT22;3471;49.678;8.388;2024-02-21T06:35:17;9.30;99.90
6865;DHT22;3471;49.678;8.388;2024-02-21T06:37:43;9.20;99.90
6865;DHT22;3471;49.678;8.388;2024-02-21T06:40:10;9.10;99.90
6865;DHT22;3471;49.678;8.388;2024-02-21T06:42:36;9.10;99.90
6865;DHT22;3471;49.678;8.388;2024-02-21T06:45:02;9.10;99.90
6865;DHT22;3471;49.678;8.388;2024-02-21T06:47:27;9.00;99.90
6865;DHT22;3471;49.678;8.388;2024-02-21T06:49:53;8.90;99.90
6865;DHT22;3471;49.678;8.388;2024-02-21T06:52:18;8.90;99.90
6865;DHT22;3471;49.678;8.388;2024-02-21T06:54:49;8.90;99.90
6865;DHT22;3471;49.678;8.388;2024-02-21T06:57:14;8.90;99.90
6865;DHT22;3471;49.678;8.388;2024-02-21T06:59:43;8.80;99.90
6865;DHT22;3471;49.678;8.388;2024-02-21T07:02:08;8.80;99.90
6865;DHT22;3471;49.678;8.388;2024-02-21T07:04:34;8.80;99.90
6865;DHT22;3471;49.678;8.388;2024-02-21T07:07:00;8.70;99.90
6865;DHT22;3471;49.678;8.388;2024-02-21T07:09:25;8.70;99.90
6865;DHT22;3471;49.678;8.388;2024-02-21T07:11:51;8.60;99.90
6865;DHT22;3471;49.678;8.388;2024-02-21T07:14:18;8.60;99.90
6865;DHT22;3471;49.678;8.388;2024-02-21T07:16:44;8.60;99.90
6865;DHT22;3471;49.678;8.388;2024-02-21T07:19:09;8.60;99.90
6865;DHT22;3471;49.678;8.388;2024-02-21T07:21:35;8.60;99.90
6865;DHT22;3471;49.678;8.388;2024-02-21T07:24:03;8.60;99.90
6865;DHT22;3471;49.678;8.388;2024-02-21T07:26:29;8.60;99.90
6865;DHT22;3471;49.678;8.388;2024-02-21T07:28:55;8.60;99.90
6865;DHT22;3471;49.678;8.388;2024-02-21T07:31:20;8.60;99.90
6865;DHT22;3471;49.678;8.388;2024-02-21T07:33:46;8.70;99.90
6865;DHT22;3471;49.678;8.388;2024-02-21T07:36:11;8.70;99.90
6865;DHT22;3471;49.678;8.388;2024-02-21T07:38:37;8.70;99.90
6865;DHT22;3471;49.678;8.388;2024-02-21T07:41:03;8.80;99.90
6865;DHT22;3471;49.678;8.388;2024-02-21T07:43:29;8.90;99.90
6865;DHT22;3471;49.678;8.388;2024-02-21T07:45:55;9.00;99.90
6865;DHT22;3471;49.678;8.388;2024-02-21T07:48:21;9.00;99.90
6865;DHT22;3471;49.678;8.388;2024-02-21T07:50:50;9.00;99.90
6865;DHT22;3471;49.678;8.388;2024-02-21T07:53:16;9.10;99.90
6865;DHT22;3471;49.678;8.388;2024-02-21T07:55:41;9.20;99.90
6865;DHT22;3471;49.678;8.388;2024-02-21T07:58:07;9.30;99.90
6865;DHT22;3471;49.678;8.388;2024-02-21T08:00:33;9.30;99.90
6865;DHT22;3471;49.678;8.388;2024-02-21T08:02:59;9.40;99.90
6865;DHT22;3471;49.678;8.388;2024-02-21T08:05:24;9.40;99.90
6865;DHT22;3471;49.678;8.388;2024-02-21T08:07:50;9.40;99.90
6865;DHT22;3471;49.678;8.388;2024-02-21T08:10:15;9.50;99.90
6865;DHT22;3471;49.678;8.388;2024-02-21T08:12:41;9.50;99.90
6865;DHT22;3471;49.678;8.388;2024-02-21T08:15:07;9.60;99.90
6865;DHT22;3471;49.678;8.388;2024-02-21T08:17:36;9.60;99.90
6865;DHT22;3471;49.678;8.388;2024-02-21T08:20:02;9.70;99.90
6865;DHT22;3471;49.678;8.388;2024-02-21T08:22:28;9.80;99.90
6865;DHT22;3471;49.678;8.388;2024-02-21T08:24:53;9.80;99.90
6865;DHT22;3471;49.678;8.388;2024-02-21T08:27:19;9.90;99.90
6865;DHT22;3471;49.678;8.388;2024-02-21T08:29:44;9.90;99.90
6865;DHT22;3471;49.678;8.388;2024-02-21T08:32:10;9.90;99.90
6865;DHT22;3471;49.678;8.388;2024-02-21T08:34:36;9.90;99.90
6865;DHT22;3471;49.678;8.388;2024-02-21T08:37:01;9.90;99.90
6865;DHT22;3471;49.678;8.388;2024-02-21T08:39:27;9.90;99.90
6865;DHT22;3471;49.678;8.388;2024-02-21T08:41:54;9.90;99.90
6865;DHT22;3471;49.678;8.388;2024-02-21T08:44:21;9.80;99.90
6865;DHT22;3471;49.678;8.388;2024-02-21T08:46:47;9.90;99.90
6865;DHT22;3471;49.678;8.388;2024-02-21T08:49:12;9.90;99.90
6865;DHT22;3471;49.678;8.388;2024-02-21T08:51:39;9.80;99.90
6865;DHT22;3471;49.678;8.388;2024-02-21T08:54:04;9.80;99.90
6865;DHT22;3471;49.678;8.388;2024-02-21T08:56:30;9.80;99.90
6865;DHT22;3471;49.678;8.388;2024-02-21T08:58:56;9.90;99.90
6865;DHT22;3471;49.678;8.388;2024-02-21T09:01:23;10.00;99.90
6865;DHT22;3471;49.678;8.388;2024-02-21T09:03:48;10.00;99.90
6865;DHT22;3471;49.678;8.388;2024-02-21T09:06:19;10.10;99.90
6865;DHT22;3471;49.678;8.388;2024-02-21T09:08:45;10.20;99.90
6865;DHT22;3471;49.678;8.388;2024-02-21T09:11:11;10.30;99.90
6865;DHT22;3471;49.678;8.388;2024-02-21T09:13:37;10.40;99.90
6865;DHT22;3471;49.678;8.388;2024-02-21T09:16:02;10.50;99.90
6865;DHT22;3471;49.678;8.388;2024-02-21T09:18:29;10.40;99.90
6865;DHT22;3471;49.678;8.388;2024-02-21T09:20:55;10.50;99.90
6865;DHT22;3471;49.678;8.388;2024-02-21T09:23:20;10.50;99.90
6865;DHT22;3471;49.678;8.388;2024-02-21T09:25:49;10.50;99.90
6865;DHT22;3471;49.678;8.388;2024-02-21T09:28:14;10.50;99.90
6865;DHT22;3471;49.678;8.388;2024-02-21T09:30:40;10.60;99.90
6865;DHT22;3471;49.678;8.388;2024-02-21T09:33:06;10.60;99.90
6865;DHT22;3471;49.678;8.388;2024-02-21T09:35:32;10.50;99.90
6865;DHT22;3471;49.678;8.388;2024-02-21T09:37:59;10.50;99.90
6865;DHT22;3471;49.678;8.388;2024-02-21T09:40:25;10.50;99.90
6865;DHT22;3471;49.678;8.388;2024-02-21T09:43:02;10.60;99.90
6865;DHT22;3471;49.678;8.388;2024-02-21T09:45:29;10.50;99.90
6865;DHT22;3471;49.678;8.388;2024-02-21T09:48:30;10.60;99.90
6865;DHT22;3471;49.678;8.388;2024-02-21T09:50:59;10.70;99.90
6865;DHT22;3471;49.678;8.388;2024-02-21T09:53:25;10.70;99.90
6865;DHT22;3471;49.678;8.388;2024-02-21T09:55:52;10.80;99.90
6865;DHT22;3471;49.678;8.388;2024-02-21T09:58:17;10.80;99.90
6865;DHT22;3471;49.678;8.388;2024-02-21T10:00:43;11.00;99.90
6865;DHT22;3471;49.678;8.388;2024-02-21T10:03:09;11.10;99.90
6865;DHT22;3471;49.678;8.388;2024-02-21T10:05:36;11.20;99.90
6865;DHT22;3471;49.678;8.388;2024-02-21T10:08:03;11.30;99.90
6865;DHT22;3471;49.678;8.388;2024-02-21T10:10:29;11.50;99.90
6865;DHT22;3471;49.678;8.388;2024-02-21T10:12:55;11.60;99.90
6865;DHT22;3471;49.678;8.388;2024-02-21T10:15:23;11.60;99.90
6865;DHT22;3471;49.678;8.388;2024-02-21T10:17:49;11.70;99.90
6865;DHT22;3471;49.678;8.388;2024-02-21T10:20:15;11.80;99.90
6865;DHT22;3471;49.678;8.388;2024-02-21T10:22:41;11.80;99.90
6865;DHT22;3471;49.678;8.388;2024-02-21T10:25:11;11.90;99.90
6865;DHT22;3471;49.678;8.388;2024-02-21T10:27:38;11.90;99.90
6865;DHT22;3471;49.678;8.388;2024-02-21T10:30:06;12.00;99.90
6865;DHT22;3471;49.678;8.388;2024-02-21T10:32:32;12.10;99.90
6865;DHT22;3471;49.678;8.388;2024-02-21T10:35:04;12.20;99.90
6865;DHT22;3471;49.678;8.388;2024-02-21T10:37:30;12.20;99.90
6865;DHT22;3471;49.678;8.388;2024-02-21T10:39:57;12.00;99.90
6865;DHT22;3471;49.678;8.388;2024-02-21T10:42:22;12.00;99.90
6865;DHT22;3471;49.678;8.388;2024-02-21T10:44:51;12.00;99.90
6865;DHT22;3471;49.678;8.388;2024-02-21T10:47:22;11.90;99.90
6865;DHT22;3471;49.678;8.388;2024-02-21T10:49:54;11.90;99.90
6865;DHT22;3471;49.678;8.388;2024-02-21T10:55:56;12.00;99.90
6865;DHT22;3471;49.678;8.388;2024-02-21T10:58:24;12.10;99.90
6865;DHT22;3471;49.678;8.388;2024-02-21T11:00:51;12.10;99.90
6865;DHT22;3471;49.678;8.388;2024-02-21T11:03:17;12.00;99.90
6865;DHT22;3471;49.678;8.388;2024-02-21T11:05:43;12.10;99.90
6865;DHT22;3471;49.678;8.388;2024-02-21T11:08:11;12.10;99.90
6865;DHT22;3471;49.678;8.388;2024-02-21T11:10:37;12.10;99.90
6865;DHT22;3471;49.678;8.388;2024-02-21T11:13:07;12.30;99.90
6865;DHT22;3471;49.678;8.388;2024-02-21T11:15:33;12.40;99.90
6865;DHT22;3471;49.678;8.388;2024-02-21T11:17:59;12.40;99.90
6865;DHT22;3471;49.678;8.388;2024-02-21T11:20:37;12.50;99.90
6865;DHT22;3471;49.678;8.388;2024-02-21T11:23:03;12.70;99.90
6865;DHT22;3471;49.678;8.388;2024-02-21T11:25:29;12.70;99.90
6865;DHT22;3471;49.678;8.388;2024-02-21T11:28:02;12.70;99.90
6865;DHT22;3471;49.678;8.388;2024-02-21T11:30:32;12.70;99.90
6865;DHT22;3471;49.678;8.388;2024-02-21T11:33:06;12.60;99.90
6865;DHT22;3471;49.678;8.388;2024-02-21T11:35:35;12.40;99.90
6865;DHT22;3471;49.678;8.388;2024-02-21T11:38:08;12.50;99.90
6865;DHT22;3471;49.678;8.388;2024-02-21T11:40:38;12.50;99.90
6865;DHT22;3471;49.678;8.388;2024-02-21T11:43:04;12.50;99.90
6865;DHT22;3471;49.678;8.388;2024-02-21T11:45:29;12.60;99.90
6865;DHT22;3471;49.678;8.388;2024-02-21T11:47:57;12.60;99.90
6865;DHT22;3471;49.678;8.388;2024-02-21T11:50:26;12.50;99.90
6865;DHT22;3471;49.678;8.388;2024-02-21T11:52:54;12.40;99.90
6865;DHT22;3471;49.678;8.388;2024-02-21T11:55:20;12.30;99.90
6865;DHT22;3471;49.678;8.388;2024-02-21T11:57:47;12.30;99.90
6865;DHT22;3471;49.678;8.388;2024-02-21T12:00:20;12.30;99.90
6865;DHT22;3471;49.678;8.388;2024-02-21T12:02:46;12.30;99.90
6865;DHT22;3471;49.678;8.388;2024-02-21T12:05:12;12.30;99.90
6865;DHT22;3471;49.678;8.388;2024-02-21T12:07:38;12.30;99.90
6865;DHT22;3471;49.678;8.388;2024-02-21T12:10:10;12.40;99.90
6865;DHT22;3471;49.678;8.388;2024-02-21T12:12:39;12.50;99.90
6865;DHT22;3471;49.678;8.388;2024-02-21T12:15:07;12.50;99.90
6865;DHT22;3471;49.678;8.388;2024-02-21T12:17:34;12.50;99.90
6865;DHT22;3471;49.678;8.388;2024-02-21T12:20:01;12.50;99.90
6865;DHT22;3471;49.678;8.388;2024-02-21T12:22:26;12.50;99.90
6865;DHT22;3471;49.678;8.388;2024-02-21T12:24:53;12.50;99.90
6865;DHT22;3471;49.678;8.388;2024-02-21T12:27:18;12.50;99.90
6865;DHT22;3471;49.678;8.388;2024-02-21T12:29:44;12.60;99.90
6865;DHT22;3471;49.678;8.388;2024-02-21T12:32:10;12.60;99.90
6865;DHT22;3471;49.678;8.388;2024-02-21T12:34:35;12.60;99.90
6865;DHT22;3471;49.678;8.388;2024-02-21T12:37:02;12.60;99.90
6865;DHT22;3471;49.678;8.388;2024-02-21T12:39:28;12.60;99.90
6865;DHT22;3471;49.678;8.388;2024-02-21T12:41:54;12.60;99.90
6865;DHT22;3471;49.678;8.388;2024-02-21T12:44:21;12.70;99.90
6865;DHT22;3471;49.678;8.388;2024-02-21T12:46:47;12.70;99.90
6865;DHT22;3471;49.678;8.388;2024-02-21T12:49:17;12.60;99.90
6865;DHT22;3471;49.678;8.388;2024-02-21T12:51:43;12.60;99.90
6865;DHT22;3471;49.678;8.388;2024-02-21T12:54:09;12.60;99.90
6865;DHT22;3471;49.678;8.388;2024-02-21T12:56:36;12.60;99.90
6865;DHT22;3471;49.678;8.388;2024-02-21T12:59:02;12.70;99.90
6865;DHT22;3471;49.678;8.388;2024-02-21T13:01:28;12.70;99.90
6865;DHT22;3471;49.678;8.388;2024-02-21T13:03:53;12.60;99.90
6865;DHT22;3471;49.678;8.388;2024-02-21T13:06:19;12.50;99.90
6865;DHT22;3471;49.678;8.388;2024-02-21T13:08:45;12.50;99.90
6865;DHT22;3471;49.678;8.388;2024-02-21T13:11:12;12.50;99.90
6865;DHT22;3471;49.678;8.388;2024-02-21T13:13:38;12.50;99.90
6865;DHT22;3471;49.678;8.388;2024-02-21T13:16:04;12.60;99.90
6865;DHT22;3471;49.678;8.388;2024-02-21T13:18:29;12.50;99.90
6865;DHT22;3471;49.678;8.388;2024-02-21T13:20:55;12.50;99.90
6865;DHT22;3471;49.678;8.388;2024-02-21T13:23:21;12.40;99.90
6865;DHT22;3471;49.678;8.388;2024-02-21T13:25:47;12.60;99.90
6865;DHT22;3471;49.678;8.388;2024-02-21T13:28:13;12.60;99.90
6865;DHT22;3471;49.678;8.388;2024-02-21T13:30:40;12.70;99.90
6865;DHT22;3471;49.678;8.388;2024-02-21T13:33:07;12.70;99.90
6865;DHT22;3471;49.678;8.388;2024-02-21T13:35:32;12.60;99.90
6865;DHT22;3471;49.678;8.388;2024-02-21T13:37:58;12.50;99.90
6865;DHT22;3471;49.678;8.388;2024-02-21T13:40:24;12.40;99.90
6865;DHT22;3471;49.678;8.388;2024-02-21T13:42:50;12.50;99.90
6865;DHT22;3471;49.678;8.388;2024-02-21T13:45:16;12.50;99.90
6865;DHT22;3471;49.678;8.388;2024-02-21T13:47:42;12.40;99.90
6865;DHT22;3471;49.678;8.388;2024-02-21T13:50:08;12.50;99.90
6865;DHT22;3471;49.678;8.388;2024-02-21T13:52:36;12.50;99.90
6865;DHT22;3471;49.678;8.388;2024-02-21T13:55:02;12.50;99.90
6865;DHT22;3471;49.678;8.388;2024-02-21T13:57:28;12.50;99.90
6865;DHT22;3471;49.678;8.388;2024-02-21T13:59:54;12.60;99.90
6865;DHT22;3471;49.678;8.388;2024-02-21T14:02:19;12.40;99.90
6865;DHT22;3471;49.678;8.388;2024-02-21T14:04:46;12.30;99.90
6865;DHT22;3471;49.678;8.388;2024-02-21T14:07:12;12.30;99.90
6865;DHT22;3471;49.678;8.388;2024-02-21T14:09:38;12.20;99.90
6865;DHT22;3471;49.678;8.388;2024-02-21T14:12:03;12.30;99.90
6865;DHT22;3471;49.678;8.388;2024-02-21T14:14:34;12.30;99.90
6865;DHT22;3471;49.678;8.388;2024-02-21T14:16:59;12.30;99.90
6865;DHT22;3471;49.678;8.388;2024-02-21T14:19:25;12.30;99.90
6865;DHT22;3471;49.678;8.388;2024-02-21T14:21:51;12.20;99.90
6865;DHT22;3471;49.678;8.388;2024-02-21T14:24:16;12.20;99.90
6865;DHT22;3471;49.678;8.388;2024-02-21T14:26:42;12.10;99.90
6865;DHT22;3471;49.678;8.388;2024-02-21T14:29:08;12.10;99.90
6865;DHT22;3471;49.678;8.388;2024-02-21T14:31:33;12.00;99.90
6865;DHT22;3471;49.678;8.388;2024-02-21T14:33:59;12.10;99.90
6865;DHT22;3471;49.678;8.388;2024-02-21T14:36:26;12.10;99.90
6865;DHT22;3471;49.678;8.388;2024-02-21T14:38:51;12.10;99.90
6865;DHT22;3471;49.678;8.388;2024-02-21T14:41:18;12.30;99.90
6865;DHT22;3471;49.678;8.388;2024-02-21T14:43:43;12.30;99.90
6865;DHT22;3471;49.678;8.388;2024-02-21T14:46:09;12.30;99.90
6865;DHT22;3471;49.678;8.388;2024-02-21T14:48:35;12.40;99.90
6865;DHT22;3471;49.678;8.388;2024-02-21T14:51:01;12.50;99.90
6865;DHT22;3471;49.678;8.388;2024-02-21T14:53:27;12.50;99.90
6865;DHT22;3471;49.678;8.388;2024-02-21T14:55:53;12.50;99.90
6865;DHT22;3471;49.678;8.388;2024-02-21T14:58:18;12.50;99.90
6865;DHT22;3471;49.678;8.388;2024-02-21T15:00:45;12.50;99.90
6865;DHT22;3471;49.678;8.388;2024-02-21T15:03:12;12.60;99.90
6865;DHT22;3471;49.678;8.388;2024-02-21T15:05:41;12.60;99.90
6865;DHT22;3471;49.678;8.388;2024-02-21T15:08:07;12.40;99.90
6865;DHT22;3471;49.678;8.388;2024-02-21T15:10:34;12.40;99.90
6865;DHT22;3471;49.678;8.388;2024-02-21T15:13:00;12.30;99.90
6865;DHT22;3471;49.678;8.388;2024-02-21T15:15:26;12.20;99.90
6865;DHT22;3471;49.678;8.388;2024-02-21T15:17:51;12.20;99.90
6865;DHT22;3471;49.678;8.388;2024-02-21T15:20:17;12.10;99.90
6865;DHT22;3471;49.678;8.388;2024-02-21T15:22:42;12.10;99.90
6865;DHT22;3471;49.678;8.388;2024-02-21T15:25:08;12.00;99.90
6865;DHT22;3471;49.678;8.388;2024-02-21T15:27:41;12.00;99.90
6865;DHT22;3471;49.678;8.388;2024-02-21T15:30:07;11.90;99.90
6865;DHT22;3471;49.678;8.388;2024-02-21T15:32:33;12.00;99.90
6865;DHT22;3471;49.678;8.388;2024-02-21T15:34:58;11.90;99.90
6865;DHT22;3471;49.678;8.388;2024-02-21T15:37:24;11.90;99.90
6865;DHT22;3471;49.678;8.388;2024-02-21T15:39:51;11.80;99.90
6865;DHT22;3471;49.678;8.388;2024-02-21T15:42:17;11.80;99.90
6865;DHT22;3471;49.678;8.388;2024-02-21T15:44:43;11.80;99.90
6865;DHT22;3471;49.678;8.388;2024-02-21T15:47:08;11.70;99.90
6865;DHT22;3471;49.678;8.388;2024-02-21T15:49:34;11.70;99.90
6865;DHT22;3471;49.678;8.388;2024-02-21T15:51:59;11.60;99.90
6865;DHT22;3471;49.678;8.388;2024-02-21T15:54:25;11.60;99.90
6865;DHT22;3471;49.678;8.388;2024-02-21T15:56:52;11.60;99.90
6865;DHT22;3471;49.678;8.388;2024-02-21T15:59:18;11.50;99.90
6865;DHT22;3471;49.678;8.388;2024-02-21T16:01:43;11.40;99.90
6865;DHT22;3471;49.678;8.388;2024-02-21T16:04:09;11.40;99.90
6865;DHT22;3471;49.678;8.388;2024-02-21T16:06:34;11.40;99.90
6865;DHT22;3471;49.678;8.388;2024-02-21T16:09:00;11.30;99.90